createdAt,value
2023-01-19T00:01:14.296Z,85.29
2023-01-19T00:03:46.603Z,84.74
2023-01-19T00:06:17.531Z,84.61
2023-01-19T00:08:50.583Z,85.18
2023-01-19T00:11:19.217Z,85.61
2023-01-19T00:13:51.364Z,86.00
2023-01-19T00:16:23.764Z,86.04
2023-01-19T00:18:51.484Z,86.21
2023-01-19T00:21:24.367Z,86.04
2023-01-19T00:23:54.479Z,85.75
2023-01-19T00:26:23.187Z,85.32
2023-01-19T00:28:57.901Z,85.08
2023-01-19T00:31:30.535Z,85.05
2023-01-19T00:34:01.975Z,85.74
2023-01-19T00:36:30.601Z,86.09
2023-01-19T00:38:58.660Z,86.43
2023-01-19T00:41:48.836Z,86.84
2023-01-19T00:44:18.262Z,86.79
2023-01-19T00:46:47.725Z,85.98
2023-01-19T00:49:17.234Z,85.38
2023-01-19T00:51:45.507Z,85.16
2023-01-19T00:54:20.835Z,85.23
2023-01-19T00:56:55.045Z,85.70
2023-01-19T00:59:29.568Z,86.37
2023-01-19T01:02:00.406Z,86.90
2023-01-19T01:04:27.612Z,87.22
2023-01-19T01:07:00.544Z,87.44
2023-01-19T01:09:32.606Z,86.90
2023-01-19T01:12:03.768Z,86.15
2023-01-19T01:14:34.976Z,86.13
2023-01-19T01:17:02.079Z,86.05
2023-01-19T01:19:31.949Z,86.31
2023-01-19T01:22:01.617Z,86.78
2023-01-19T01:24:31.993Z,87.16
2023-01-19T01:26:59.192Z,87.20
2023-01-19T01:29:30.462Z,87.09
2023-01-19T01:32:01.408Z,86.38
2023-01-19T01:34:32.371Z,85.93
2023-01-19T01:37:02.815Z,85.71
2023-01-19T01:39:30.938Z,85.63
2023-01-19T01:41:58.498Z,86.16
2023-01-19T01:44:49.277Z,86.85
2023-01-19T01:47:50.130Z,87.46
2023-01-19T01:50:21.733Z,87.63
2023-01-19T01:53:15.466Z,86.91
2023-01-19T01:55:47.561Z,86.64
2023-01-19T01:58:42.277Z,86.57
2023-01-19T02:01:33.178Z,86.76
2023-01-19T02:04:02.387Z,87.11
2023-01-19T02:06:29.979Z,87.41
2023-01-19T02:09:24.861Z,87.81
2023-01-19T02:12:13.135Z,88.07
2023-01-19T02:14:44.660Z,88.45
2023-01-19T02:17:13.478Z,88.33
2023-01-19T02:19:42.280Z,87.64
2023-01-19T02:22:21.075Z,87.31
2023-01-19T02:24:49.445Z,87.33
2023-01-19T02:27:18.989Z,86.95
2023-01-19T02:29:50.694Z,87.08
2023-01-19T02:32:19.013Z,87.40
2023-01-19T02:34:47.559Z,87.22
2023-01-19T02:37:14.850Z,87.67
2023-01-19T02:39:51.049Z,87.65
2023-01-19T02:42:27.548Z,87.67
2023-01-19T02:44:56.202Z,87.89
2023-01-19T02:47:24.844Z,87.36
2023-01-19T02:49:56.664Z,87.00
2023-01-19T02:52:27.188Z,86.95
2023-01-19T02:55:17.692Z,87.04
2023-01-19T02:57:57.846Z,88.09
2023-01-19T03:00:33.912Z,88.72
2023-01-19T03:03:20.197Z,89.14
2023-01-19T03:06:09.251Z,89.38
2023-01-19T03:08:41.912Z,89.51
2023-01-19T03:11:11.678Z,88.60
2023-01-19T03:13:55.762Z,88.30
2023-01-19T03:16:45.164Z,88.36
2023-01-19T03:19:33.783Z,88.34
2023-01-19T03:22:09.377Z,88.30
2023-01-19T03:24:41.758Z,88.72
2023-01-19T03:27:35.106Z,89.09
2023-01-19T03:30:07.349Z,89.63
2023-01-19T03:32:43.284Z,90.04
2023-01-19T03:35:15.359Z,89.76
2023-01-19T03:37:46.149Z,89.60
2023-01-19T03:40:16.933Z,89.04
2023-01-19T03:42:48.842Z,88.61
2023-01-19T03:45:21.166Z,88.12
2023-01-19T03:47:51.140Z,87.76
2023-01-19T03:50:26.765Z,87.98
2023-01-19T03:53:32.629Z,88.66
2023-01-19T03:56:03.225Z,89.46
2023-01-19T03:58:33.703Z,89.65
2023-01-19T04:01:05.095Z,89.49
2023-01-19T04:03:34.749Z,88.69
2023-01-19T04:06:34.244Z,88.14
2023-01-19T04:09:10.614Z,87.53
2023-01-19T04:11:38.027Z,87.52
2023-01-19T04:14:08.247Z,87.54
2023-01-19T04:16:39.509Z,87.68
2023-01-19T04:19:29.796Z,87.66
2023-01-19T04:22:02.287Z,88.16
2023-01-19T04:24:31.210Z,88.23
2023-01-19T04:27:02.297Z,88.50
2023-01-19T04:29:33.192Z,88.84
2023-01-19T04:32:06.793Z,88.88
2023-01-19T04:34:50.237Z,88.29
2023-01-19T04:37:22.694Z,87.77
2023-01-19T04:39:55.735Z,87.47
2023-01-19T04:42:27.104Z,87.51
2023-01-19T04:45:00.365Z,87.72
2023-01-19T04:47:31.460Z,87.77
2023-01-19T04:50:01.221Z,88.27
2023-01-19T04:52:56.113Z,88.09
2023-01-19T04:55:26.171Z,88.51
2023-01-19T04:57:57.738Z,89.13
2023-01-19T05:00:29.513Z,89.32
2023-01-19T05:02:57.440Z,89.57
2023-01-19T05:05:26.841Z,89.23
2023-01-19T05:07:56.637Z,88.82
2023-01-19T05:10:27.677Z,88.49
2023-01-19T05:13:00.699Z,88.35
2023-01-19T05:15:35.406Z,88.34
2023-01-19T05:18:07.212Z,88.58
2023-01-19T05:20:45.093Z,88.99
2023-01-19T05:23:13.272Z,89.56
2023-01-19T05:25:43.932Z,89.63
2023-01-19T05:28:14.674Z,89.62
2023-01-19T05:30:47.878Z,89.10
2023-01-19T05:33:48.717Z,88.90
2023-01-19T05:36:21.471Z,88.76
2023-01-19T05:38:51.304Z,88.93
2023-01-19T05:41:20.479Z,88.69
2023-01-19T05:43:54.384Z,88.82
2023-01-19T05:46:24.429Z,88.35
2023-01-19T05:49:01.185Z,88.20
2023-01-19T05:51:37.448Z,88.89
2023-01-19T05:54:08.104Z,89.23
2023-01-19T05:56:39.137Z,89.28
2023-01-19T05:59:10.893Z,89.57
2023-01-19T06:01:46.573Z,88.91
2023-01-19T06:04:19.059Z,88.28
2023-01-19T06:06:49.662Z,87.76
2023-01-19T06:09:20.928Z,87.70
2023-01-19T06:11:49.248Z,88.14
2023-01-19T06:14:23.116Z,88.91
2023-01-19T06:16:52.383Z,89.39
2023-01-19T06:19:23.051Z,89.70
2023-01-19T06:21:52.558Z,89.90
2023-01-19T06:24:24.632Z,89.71
2023-01-19T06:26:59.907Z,89.39
2023-01-19T06:29:31.086Z,89.71
2023-01-19T06:32:00.677Z,89.63
2023-01-19T06:34:29.245Z,89.28
2023-01-19T06:36:59.628Z,89.23
2023-01-19T06:39:31.716Z,88.96
2023-01-19T06:42:05.373Z,89.16
2023-01-19T06:44:58.977Z,89.10
2023-01-19T06:47:33.876Z,89.20
2023-01-19T06:50:03.095Z,89.38
2023-01-19T06:52:42.090Z,89.15
2023-01-19T06:55:10.712Z,89.62
2023-01-19T06:57:39.918Z,89.79
2023-01-19T07:00:11.295Z,89.92
2023-01-19T07:02:46.393Z,90.20
2023-01-19T07:05:16.717Z,90.49
2023-01-19T07:07:45.924Z,90.32
2023-01-19T07:10:16.413Z,90.14
2023-01-19T07:12:50.671Z,89.92
2023-01-19T07:15:22.483Z,90.09
2023-01-19T07:17:58.368Z,90.45
2023-01-19T07:20:37.469Z,90.49
2023-01-19T07:23:05.363Z,90.71
2023-01-19T07:25:38.960Z,90.79
2023-01-19T07:28:22.758Z,90.92
2023-01-19T07:31:06.209Z,90.79
2023-01-19T07:33:34.664Z,90.82
2023-01-19T07:36:04.637Z,91.05
2023-01-19T07:38:59.688Z,91.13
2023-01-19T07:41:39.208Z,91.07
2023-01-19T07:44:10.534Z,91.18
2023-01-19T07:46:43.474Z,91.04
2023-01-19T07:49:14.867Z,91.03
2023-01-19T07:51:46.552Z,90.97
2023-01-19T07:54:16.063Z,91.24
2023-01-19T07:56:44.231Z,90.98
2023-01-19T07:59:15.720Z,91.16
2023-01-19T08:01:52.548Z,90.91
2023-01-19T08:04:21.823Z,90.90
2023-01-19T08:06:54.694Z,90.73
2023-01-19T08:09:31.769Z,90.22
2023-01-19T08:12:01.704Z,90.09
2023-01-19T08:14:30.942Z,89.75
2023-01-19T08:17:01.941Z,89.45
2023-01-19T08:19:30.828Z,89.02
2023-01-19T08:22:02.188Z,88.98
2023-01-19T08:24:31.884Z,88.65
2023-01-19T08:27:02.034Z,88.30
2023-01-19T08:29:31.344Z,88.32
2023-01-19T08:32:03.922Z,87.79
2023-01-19T08:34:40.363Z,87.09
2023-01-19T08:37:07.485Z,86.77
2023-01-19T08:39:40.753Z,86.46
2023-01-19T08:42:12.159Z,86.26
2023-01-19T08:44:57.247Z,85.87
2023-01-19T08:47:26.041Z,85.15
2023-01-19T08:49:55.566Z,84.65
2023-01-19T08:52:29.279Z,84.76
2023-01-19T08:54:59.643Z,84.45
2023-01-19T08:57:29.306Z,84.37
2023-01-19T08:59:58.840Z,83.73
2023-01-19T09:02:26.345Z,83.27
2023-01-19T09:04:57.248Z,82.73
2023-01-19T09:07:28.703Z,82.54
2023-01-19T09:10:01.041Z,82.28
2023-01-19T09:12:49.816Z,82.50
2023-01-19T09:15:18.557Z,82.17
2023-01-19T09:17:51.092Z,82.04
2023-01-19T09:20:28.018Z,81.73
2023-01-19T09:22:57.516Z,81.14
2023-01-19T09:25:26.178Z,80.72
2023-01-19T09:27:55.801Z,80.21
2023-01-19T09:30:24.559Z,80.01
2023-01-19T09:32:55.501Z,80.28
2023-01-19T09:35:24.462Z,80.57
2023-01-19T09:37:56.779Z,80.71
2023-01-19T09:40:32.339Z,80.73
2023-01-19T09:43:23.115Z,80.77
2023-01-19T09:45:59.130Z,80.23
2023-01-19T09:48:45.330Z,80.10
2023-01-19T09:51:36.639Z,80.13
2023-01-19T09:56:10.603Z,80.64
2023-01-19T09:58:41.342Z,80.38
2023-01-19T10:01:57.896Z,80.63
2023-01-19T10:04:55.959Z,80.87
2023-01-19T10:07:44.986Z,80.72
2023-01-19T10:10:33.894Z,80.61
2023-01-19T10:13:46.926Z,80.78
2023-01-19T10:16:43.847Z,81.09
2023-01-19T10:19:30.695Z,81.15
2023-01-19T10:22:21.663Z,81.06
2023-01-19T10:24:55.632Z,81.23
2023-01-19T10:27:31.323Z,81.22
2023-01-19T10:30:02.237Z,80.83
2023-01-19T10:32:35.241Z,80.54
2023-01-19T10:35:21.675Z,80.71
2023-01-19T10:38:11.692Z,81.00
2023-01-19T10:41:15.606Z,80.77
2023-01-19T10:43:46.865Z,80.28
2023-01-19T10:46:43.269Z,79.87
2023-01-19T10:49:43.530Z,79.70
2023-01-19T10:52:55.153Z,79.41
2023-01-19T10:56:12.276Z,79.33
2023-01-19T10:58:46.299Z,78.93
2023-01-19T11:01:22.223Z,79.04
2023-01-19T11:03:52.759Z,79.04
2023-01-19T11:06:24.538Z,78.91
2023-01-19T11:09:15.715Z,78.81
2023-01-19T11:11:45.691Z,78.41
2023-01-19T11:14:27.120Z,78.37
2023-01-19T11:17:01.239Z,78.66
2023-01-19T11:19:32.654Z,78.80
2023-01-19T11:22:26.352Z,78.63
2023-01-19T11:24:59.347Z,78.24
2023-01-19T11:27:32.043Z,77.71
2023-01-19T11:30:22.018Z,77.68
2023-01-19T11:32:50.734Z,77.45
2023-01-19T11:35:41.117Z,77.58
2023-01-19T11:38:22.154Z,77.39
2023-01-19T11:41:14.496Z,77.58
2023-01-19T11:43:49.474Z,77.66
2023-01-19T11:46:50.846Z,77.86
2023-01-19T11:49:34.663Z,77.96
2023-01-19T11:52:19.014Z,77.65
2023-01-19T11:55:00.205Z,77.28
2023-01-19T11:57:28.995Z,76.82
2023-01-19T12:00:05.614Z,76.69
2023-01-19T12:02:44.264Z,76.30
2023-01-19T12:05:21.763Z,76.36
2023-01-19T12:07:54.081Z,76.11
2023-01-19T12:10:34.824Z,76.12
2023-01-19T12:13:03.674Z,76.05
2023-01-19T12:15:44.052Z,75.92
2023-01-19T12:18:43.561Z,75.66
2023-01-19T12:21:14.146Z,75.80
2023-01-19T12:23:48.061Z,75.76
2023-01-19T12:26:49.367Z,75.43
2023-01-19T12:29:19.601Z,75.45
2023-01-19T12:32:33.179Z,75.63
2023-01-19T12:35:06.900Z,75.70
2023-01-19T12:37:38.474Z,75.64
2023-01-19T12:40:23.055Z,75.50
2023-01-19T12:42:57.111Z,75.44
2023-01-19T12:45:31.642Z,75.26
2023-01-19T12:48:02.036Z,74.96
2023-01-19T12:50:37.223Z,74.59
2023-01-19T12:53:07.816Z,74.30
2023-01-19T12:55:46.146Z,74.35
2023-01-19T12:58:22.107Z,74.26
2023-01-19T13:01:13.016Z,74.14
2023-01-19T13:04:09.313Z,74.13
2023-01-19T13:07:08.285Z,74.35
2023-01-19T13:09:58.239Z,74.56
2023-01-19T13:12:29.333Z,74.60
2023-01-19T13:15:35.411Z,74.77
2023-01-19T13:18:10.297Z,74.56
2023-01-19T13:20:53.060Z,74.54
2023-01-19T13:23:22.201Z,74.49
2023-01-19T13:25:59.427Z,74.43
2023-01-19T13:28:39.589Z,74.54
2023-01-19T13:31:11.032Z,74.58
2023-01-19T13:33:57.978Z,74.71
2023-01-19T13:36:36.541Z,74.89
2023-01-19T13:39:18.573Z,75.39
2023-01-19T13:41:49.269Z,75.57
2023-01-19T13:44:30.529Z,75.83
2023-01-19T13:47:26.972Z,75.45
2023-01-19T13:49:57.776Z,75.08
2023-01-19T13:52:29.130Z,75.24
2023-01-19T13:55:05.174Z,75.63
2023-01-19T13:57:39.938Z,75.99
2023-01-19T14:00:18.240Z,76.42
2023-01-19T14:03:08.041Z,76.58
2023-01-19T14:05:38.804Z,76.95
2023-01-19T14:08:18.545Z,76.97
2023-01-19T14:11:03.279Z,77.04
2023-01-19T14:13:36.814Z,77.40
2023-01-19T14:16:27.709Z,77.54
2023-01-19T14:19:05.148Z,77.59
2023-01-19T14:21:45.642Z,77.66
2023-01-19T14:24:17.541Z,78.07
2023-01-19T14:26:59.260Z,78.22
2023-01-19T14:29:31.751Z,78.56
2023-01-19T14:32:14.449Z,78.52
2023-01-19T14:35:04.409Z,78.50
2023-01-19T14:37:49.711Z,78.51
2023-01-19T14:40:21.529Z,78.55
2023-01-19T14:42:56.877Z,78.53
2023-01-19T14:45:36.325Z,78.44
2023-01-19T14:48:49.532Z,78.13
2023-01-19T14:51:21.263Z,78.14
2023-01-19T14:53:54.498Z,78.38
2023-01-19T14:56:30.387Z,78.70
2023-01-19T14:59:01.160Z,78.93
2023-01-19T15:01:30.533Z,79.29
2023-01-19T15:04:01.550Z,78.90
2023-01-19T15:06:33.560Z,78.94
2023-01-19T15:09:04.954Z,78.78
2023-01-19T15:11:36.695Z,78.80
2023-01-19T15:14:24.662Z,78.84
2023-01-19T15:16:53.319Z,78.96
2023-01-19T15:19:21.195Z,78.88
2023-01-19T15:21:50.178Z,78.90
2023-01-19T15:24:19.176Z,78.93
2023-01-19T15:26:51.393Z,79.03
2023-01-19T15:29:21.491Z,78.81
2023-01-19T15:31:54.753Z,78.85
2023-01-19T15:34:29.383Z,78.66
2023-01-19T15:37:02.774Z,78.65
2023-01-19T15:39:33.085Z,78.60
2023-01-19T15:42:07.485Z,78.65
2023-01-19T15:44:37.097Z,78.72
2023-01-19T15:47:06.433Z,78.83
2023-01-19T15:49:35.987Z,78.85
2023-01-19T15:52:04.839Z,78.68
2023-01-19T15:54:37.082Z,78.74
2023-01-19T15:57:12.063Z,78.49
2023-01-19T15:59:39.798Z,78.42
2023-01-19T16:02:11.562Z,78.30
2023-01-19T16:04:41.764Z,78.07
2023-01-19T16:07:11.098Z,78.04
2023-01-19T16:09:39.340Z,78.14
2023-01-19T16:12:06.641Z,78.38
2023-01-19T16:14:38.497Z,78.56
2023-01-19T16:17:11.702Z,78.37
2023-01-19T16:19:43.847Z,78.22
2023-01-19T16:22:13.338Z,78.01
2023-01-19T16:24:43.631Z,78.13
2023-01-19T16:27:13.723Z,78.16
2023-01-19T16:29:43.060Z,78.18
2023-01-19T16:32:12.731Z,77.93
2023-01-19T16:34:40.339Z,77.89
2023-01-19T16:37:11.743Z,78.33
2023-01-19T16:39:42.606Z,78.64
2023-01-19T16:42:16.092Z,78.79
2023-01-19T16:44:46.192Z,78.73
2023-01-19T16:47:25.463Z,78.66
2023-01-19T16:49:53.590Z,78.88
2023-01-19T16:52:24.058Z,78.73
2023-01-19T16:54:55.333Z,78.76
2023-01-19T16:57:26.780Z,78.82
2023-01-19T16:59:56.521Z,78.66
2023-01-19T17:02:25.883Z,78.68
2023-01-19T17:05:00.371Z,78.86
2023-01-19T17:07:30.709Z,78.76
2023-01-19T17:10:01.779Z,78.74
2023-01-19T17:12:33.604Z,78.61
2023-01-19T17:15:03.043Z,78.54
2023-01-19T17:17:36.531Z,78.61
2023-01-19T17:20:06.544Z,78.80
2023-01-19T17:22:35.727Z,78.88
2023-01-19T17:25:05.557Z,78.64
2023-01-19T17:27:36.387Z,78.70
2023-01-19T17:30:10.315Z,78.71
2023-01-19T17:32:50.618Z,78.72
2023-01-19T17:35:18.880Z,78.66
2023-01-19T17:37:47.956Z,78.56
2023-01-19T17:40:26.340Z,78.58
2023-01-19T17:42:59.785Z,78.60
2023-01-19T17:45:56.950Z,78.61
2023-01-19T17:48:53.882Z,78.46
2023-01-19T17:51:23.238Z,78.69
2023-01-19T17:53:53.047Z,78.85
2023-01-19T17:56:28.099Z,78.90
2023-01-19T17:58:57.076Z,79.04
2023-01-19T18:01:27.900Z,79.07
2023-01-19T18:03:55.437Z,79.15
2023-01-19T18:06:24.260Z,79.15
2023-01-19T18:08:53.889Z,79.24
2023-01-19T18:11:24.304Z,79.29
2023-01-19T18:13:59.085Z,79.34
2023-01-19T18:16:28.748Z,79.41
2023-01-19T18:18:58.545Z,79.26
2023-01-19T18:21:30.066Z,79.43
2023-01-19T18:24:01.864Z,79.40
2023-01-19T18:26:35.500Z,79.32
2023-01-19T18:29:05.202Z,79.25
2023-01-19T18:31:33.722Z,79.19
2023-01-19T18:34:05.632Z,79.28
2023-01-19T18:37:04.361Z,79.16
2023-01-19T18:39:50.841Z,79.29
2023-01-19T18:42:20.616Z,79.30
2023-01-19T18:44:51.464Z,79.30
2023-01-19T18:47:21.708Z,79.25
2023-01-19T18:49:56.052Z,79.35
2023-01-19T18:52:23.933Z,79.27
2023-01-19T18:55:01.384Z,79.28
2023-01-19T18:57:34.190Z,79.39
2023-01-19T19:00:08.197Z,79.40
2023-01-19T19:02:37.955Z,79.60
2023-01-19T19:05:09.778Z,79.65
2023-01-19T19:07:46.824Z,79.87
2023-01-19T19:10:17.981Z,79.83
2023-01-19T19:13:14.520Z,79.70
2023-01-19T19:15:50.848Z,79.65
2023-01-19T19:18:22.676Z,79.81
2023-01-19T19:20:50.476Z,79.85
2023-01-19T19:23:25.969Z,79.83
2023-01-19T19:25:53.852Z,79.76
2023-01-19T19:28:21.349Z,79.86
2023-01-19T19:30:52.287Z,79.77
2023-01-19T19:33:23.902Z,79.75
2023-01-19T19:35:56.463Z,79.73
2023-01-19T19:38:26.407Z,79.83
2023-01-19T19:41:06.529Z,79.69
2023-01-19T19:43:36.126Z,79.80
2023-01-19T19:46:06.899Z,79.58
2023-01-19T19:48:39.103Z,79.67
2023-01-19T19:51:18.759Z,79.58
2023-01-19T19:54:17.970Z,79.58
2023-01-19T19:56:51.535Z,79.56
2023-01-19T19:59:20.372Z,79.25
2023-01-19T20:01:49.853Z,79.22
2023-01-19T20:04:23.103Z,79.32
2023-01-19T20:06:53.662Z,79.23
2023-01-19T20:09:25.717Z,79.24
2023-01-19T20:11:54.519Z,79.04
2023-01-19T20:14:23.755Z,79.01
2023-01-19T20:16:56.757Z,78.94
2023-01-19T20:19:27.362Z,78.77
2023-01-19T20:21:57.809Z,79.02
2023-01-19T20:24:28.011Z,78.96
2023-01-19T20:27:03.512Z,79.19
2023-01-19T20:29:33.426Z,79.13
2023-01-19T20:32:02.205Z,79.16
2023-01-19T20:34:37.680Z,79.21
2023-01-19T20:37:15.973Z,79.05
2023-01-19T20:39:45.666Z,79.19
2023-01-19T20:43:00.814Z,79.20
2023-01-19T20:45:33.536Z,78.52
2023-01-19T20:48:27.138Z,78.83
2023-01-19T20:51:02.557Z,78.58
2023-01-19T20:53:36.031Z,78.65
2023-01-19T20:56:07.107Z,78.82
2023-01-19T20:58:37.213Z,78.85
2023-01-19T21:01:21.169Z,79.25
2023-01-19T21:03:51.059Z,79.62
2023-01-19T21:06:19.157Z,78.85
2023-01-19T21:09:14.007Z,78.73
2023-01-19T21:11:47.106Z,79.14
2023-01-19T21:14:27.435Z,79.58
2023-01-19T21:16:58.571Z,79.99
2023-01-19T21:19:30.010Z,79.31
2023-01-19T21:21:58.898Z,79.12
2023-01-19T21:24:35.090Z,79.09
2023-01-19T21:27:07.348Z,79.08
2023-01-19T21:29:36.185Z,79.48
2023-01-19T21:32:07.794Z,79.97
2023-01-19T21:35:04.737Z,80.22
2023-01-19T21:38:03.167Z,80.29
2023-01-19T21:40:37.262Z,79.39
2023-01-19T21:43:12.767Z,79.58
2023-01-19T21:45:46.009Z,79.76
2023-01-19T21:48:22.699Z,80.20
2023-01-19T21:50:58.387Z,80.42
2023-01-19T21:53:32.629Z,80.40
2023-01-19T21:56:10.380Z,79.65
2023-01-19T21:58:42.684Z,79.23
2023-01-19T22:01:15.067Z,79.00
2023-01-19T22:03:44.369Z,79.65
2023-01-19T22:06:15.897Z,80.03
2023-01-19T22:08:47.651Z,80.03
2023-01-19T22:13:50.883Z,80.86
2023-01-19T22:16:22.603Z,79.53
2023-01-19T22:18:53.375Z,78.99
2023-01-19T22:21:23.180Z,79.40
2023-01-19T22:23:52.965Z,79.81
2023-01-19T22:26:25.883Z,79.96
2023-01-19T22:28:56.079Z,80.02
2023-01-19T22:31:26.862Z,79.22
2023-01-19T22:34:00.232Z,78.52
2023-01-19T22:36:34.441Z,78.79
2023-01-19T22:39:07.636Z,79.41
2023-01-19T22:41:41.312Z,79.71
2023-01-19T22:44:35.951Z,79.77
2023-01-19T22:47:09.500Z,79.88
2023-01-19T22:49:39.191Z,78.82
2023-01-19T22:52:11.930Z,78.69
2023-01-19T22:54:43.499Z,79.05
2023-01-19T22:57:11.633Z,79.53
2023-01-19T22:59:44.368Z,79.85
2023-01-19T23:02:43.338Z,80.08
2023-01-19T23:05:17.585Z,80.14
2023-01-19T23:07:50.856Z,79.11
2023-01-19T23:10:18.263Z,78.59
2023-01-19T23:12:52.957Z,78.99
2023-01-19T23:15:25.430Z,79.60
2023-01-19T23:17:55.795Z,79.54
2023-01-19T23:20:27.230Z,79.88
2023-01-19T23:22:56.553Z,79.95
2023-01-19T23:25:33.494Z,80.13
2023-01-19T23:28:02.269Z,79.17
2023-01-19T23:30:34.972Z,78.41
2023-01-19T23:33:05.143Z,78.40
2023-01-19T23:35:38.181Z,78.97
2023-01-19T23:38:10.885Z,79.42
2023-01-19T23:40:39.949Z,79.81
2023-01-19T23:43:15.843Z,79.79
2023-01-19T23:45:48.575Z,80.01
2023-01-19T23:48:19.347Z,79.93
2023-01-19T23:50:49.374Z,78.99
2023-01-19T23:53:17.271Z,78.47
2023-01-19T23:55:47.231Z,78.17
2023-01-19T23:58:18.139Z,78.76
